sensor_id;sensor_type;location;lat;lon;timestamp;P1;durP1;ratioP1;P2;durP2;ratioP2
81223;SDS011;70698;44.402;18.522;2023-08-06T00:01:42;15.60;;;9.95;;
81223;SDS011;70698;44.402;18.522;2023-08-06T00:04:07;17.33;;;10.90;;
81223;SDS011;70698;44.402;18.522;2023-08-06T00:06:33;15.68;;;10.82;;
81223;SDS011;70698;44.402;18.522;2023-08-06T00:08:58;16.25;;;11.07;;
81223;SDS011;70698;44.402;18.522;2023-08-06T00:11:24;16.63;;;11.23;;
81223;SDS011;70698;44.402;18.522;2023-08-06T00:13:49;16.75;;;10.50;;
81223;SDS011;70698;44.402;18.522;2023-08-06T00:16:15;15.88;;;10.93;;
81223;SDS011;70698;44.402;18.522;2023-08-06T00:18:40;17.25;;;11.25;;
81223;SDS011;70698;44.402;18.522;2023-08-06T00:21:06;13.07;;;9.98;;
81223;SDS011;70698;44.402;18.522;2023-08-06T00:23:32;14.32;;;10.15;;
81223;SDS011;70698;44.402;18.522;2023-08-06T00:25:57;16.38;;;10.25;;
81223;SDS011;70698;44.402;18.522;2023-08-06T00:28:23;11.95;;;9.48;;
81223;SDS011;70698;44.402;18.522;2023-08-06T00:30:52;14.55;;;10.48;;
81223;SDS011;70698;44.402;18.522;2023-08-06T00:33:19;12.02;;;9.07;;
81223;SDS011;70698;44.402;18.522;2023-08-06T00:35:45;14.82;;;9.93;;
81223;SDS011;70698;44.402;18.522;2023-08-06T00:38:12;13.57;;;9.60;;
81223;SDS011;70698;44.402;18.522;2023-08-06T00:40:37;14.02;;;9.30;;
81223;SDS011;70698;44.402;18.522;2023-08-06T00:43:03;13.35;;;9.25;;
81223;SDS011;70698;44.402;18.522;2023-08-06T00:45:29;14.20;;;9.23;;
81223;SDS011;70698;44.402;18.522;2023-08-06T00:47:58;16.98;;;12.38;;
81223;SDS011;70698;44.402;18.522;2023-08-06T00:50:25;13.57;;;10.85;;
81223;SDS011;70698;44.402;18.522;2023-08-06T00:52:50;13.02;;;10.00;;
81223;SDS011;70698;44.402;18.522;2023-08-06T00:55:17;31.10;;;27.30;;
81223;SDS011;70698;44.402;18.522;2023-08-06T00:57:43;28.15;;;24.00;;
81223;SDS011;70698;44.402;18.522;2023-08-06T01:00:09;17.48;;;14.77;;
81223;SDS011;70698;44.402;18.522;2023-08-06T01:02:35;25.23;;;22.63;;
81223;SDS011;70698;44.402;18.522;2023-08-06T01:05:00;16.35;;;14.60;;
81223;SDS011;70698;44.402;18.522;2023-08-06T01:16:18;12.18;;;9.30;;
81223;SDS011;70698;44.402;18.522;2023-08-06T01:18:47;14.07;;;9.90;;
81223;SDS011;70698;44.402;18.522;2023-08-06T01:21:18;13.90;;;9.70;;
81223;SDS011;70698;44.402;18.522;2023-08-06T01:23:44;13.02;;;9.95;;
81223;SDS011;70698;44.402;18.522;2023-08-06T01:31:36;19.63;;;11.05;;
81223;SDS011;70698;44.402;18.522;2023-08-06T01:34:05;53.03;;;13.93;;
81223;SDS011;70698;44.402;18.522;2023-08-06T01:36:34;17.17;;;11.32;;
81223;SDS011;70698;44.402;18.522;2023-08-06T01:39:01;18.65;;;12.48;;
81223;SDS011;70698;44.402;18.522;2023-08-06T01:41:27;20.65;;;11.00;;
81223;SDS011;70698;44.402;18.522;2023-08-06T01:43:52;12.50;;;9.25;;
81223;SDS011;70698;44.402;18.522;2023-08-06T01:46:18;14.48;;;9.80;;
81223;SDS011;70698;44.402;18.522;2023-08-06T01:48:44;12.88;;;9.75;;
81223;SDS011;70698;44.402;18.522;2023-08-06T01:51:09;12.65;;;9.32;;
81223;SDS011;70698;44.402;18.522;2023-08-06T01:53:35;13.70;;;10.45;;
81223;SDS011;70698;44.402;18.522;2023-08-06T01:56:00;18.90;;;11.27;;
81223;SDS011;70698;44.402;18.522;2023-08-06T01:58:26;15.65;;;11.40;;
81223;SDS011;70698;44.402;18.522;2023-08-06T02:00:52;17.17;;;10.38;;
81223;SDS011;70698;44.402;18.522;2023-08-06T02:03:18;15.30;;;10.00;;
81223;SDS011;70698;44.402;18.522;2023-08-06T02:05:43;13.30;;;9.80;;
81223;SDS011;70698;44.402;18.522;2023-08-06T02:08:10;14.32;;;10.05;;
81223;SDS011;70698;44.402;18.522;2023-08-06T02:10:36;15.88;;;12.20;;
81223;SDS011;70698;44.402;18.522;2023-08-06T02:13:01;17.08;;;11.60;;
81223;SDS011;70698;44.402;18.522;2023-08-06T02:15:27;15.20;;;10.57;;
81223;SDS011;70698;44.402;18.522;2023-08-06T02:17:53;13.05;;;10.07;;
81223;SDS011;70698;44.402;18.522;2023-08-06T02:20:18;16.90;;;10.18;;
81223;SDS011;70698;44.402;18.522;2023-08-06T02:22:44;20.38;;;15.95;;
81223;SDS011;70698;44.402;18.522;2023-08-06T02:25:09;21.13;;;15.32;;
81223;SDS011;70698;44.402;18.522;2023-08-06T02:27:35;14.80;;;10.55;;
81223;SDS011;70698;44.402;18.522;2023-08-06T02:30:02;15.77;;;11.15;;
81223;SDS011;70698;44.402;18.522;2023-08-06T02:32:29;15.23;;;12.15;;
81223;SDS011;70698;44.402;18.522;2023-08-06T02:34:58;14.68;;;9.35;;
81223;SDS011;70698;44.402;18.522;2023-08-06T02:37:24;13.48;;;9.23;;
81223;SDS011;70698;44.402;18.522;2023-08-06T02:39:49;13.50;;;10.32;;
81223;SDS011;70698;44.402;18.522;2023-08-06T02:42:15;14.95;;;10.20;;
81223;SDS011;70698;44.402;18.522;2023-08-06T02:44:41;12.75;;;9.10;;
81223;SDS011;70698;44.402;18.522;2023-08-06T02:47:06;12.63;;;9.15;;
81223;SDS011;70698;44.402;18.522;2023-08-06T02:49:32;11.95;;;9.13;;
81223;SDS011;70698;44.402;18.522;2023-08-06T02:51:57;13.13;;;9.50;;
81223;SDS011;70698;44.402;18.522;2023-08-06T02:54:23;17.08;;;12.95;;
81223;SDS011;70698;44.402;18.522;2023-08-06T02:56:49;18.25;;;11.50;;
81223;SDS011;70698;44.402;18.522;2023-08-06T02:59:23;16.48;;;10.98;;
81223;SDS011;70698;44.402;18.522;2023-08-06T03:02:02;15.75;;;10.90;;
81223;SDS011;70698;44.402;18.522;2023-08-06T03:04:38;16.00;;;11.35;;
81223;SDS011;70698;44.402;18.522;2023-08-06T03:07:04;12.88;;;10.18;;
81223;SDS011;70698;44.402;18.522;2023-08-06T03:09:38;15.23;;;10.40;;
81223;SDS011;70698;44.402;18.522;2023-08-06T03:12:05;14.07;;;10.52;;
81223;SDS011;70698;44.402;18.522;2023-08-06T03:14:31;40.40;;;29.48;;
81223;SDS011;70698;44.402;18.522;2023-08-06T03:16:57;16.67;;;12.15;;
81223;SDS011;70698;44.402;18.522;2023-08-06T03:19:23;14.68;;;10.25;;
81223;SDS011;70698;44.402;18.522;2023-08-06T03:21:49;14.02;;;10.38;;
81223;SDS011;70698;44.402;18.522;2023-08-06T03:24:15;14.95;;;10.63;;
81223;SDS011;70698;44.402;18.522;2023-08-06T03:26:42;19.80;;;15.23;;
81223;SDS011;70698;44.402;18.522;2023-08-06T03:29:09;21.77;;;18.58;;
81223;SDS011;70698;44.402;18.522;2023-08-06T03:31:35;15.40;;;11.50;;
81223;SDS011;70698;44.402;18.522;2023-08-06T03:34:00;13.65;;;9.52;;
81223;SDS011;70698;44.402;18.522;2023-08-06T03:36:28;15.48;;;9.80;;
81223;SDS011;70698;44.402;18.522;2023-08-06T03:38:54;14.52;;;9.45;;
81223;SDS011;70698;44.402;18.522;2023-08-06T03:41:20;15.05;;;9.00;;
81223;SDS011;70698;44.402;18.522;2023-08-06T03:43:46;12.45;;;9.60;;
81223;SDS011;70698;44.402;18.522;2023-08-06T03:46:18;11.20;;;8.85;;
81223;SDS011;70698;44.402;18.522;2023-08-06T03:48:44;18.67;;;9.38;;
81223;SDS011;70698;44.402;18.522;2023-08-06T03:51:09;13.10;;;9.63;;
81223;SDS011;70698;44.402;18.522;2023-08-06T03:53:36;13.60;;;9.63;;
81223;SDS011;70698;44.402;18.522;2023-08-06T03:56:03;11.73;;;9.30;;
81223;SDS011;70698;44.402;18.522;2023-08-06T03:58:30;15.60;;;9.27;;
81223;SDS011;70698;44.402;18.522;2023-08-06T04:01:02;13.50;;;9.68;;
81223;SDS011;70698;44.402;18.522;2023-08-06T04:03:43;12.57;;;9.45;;
81223;SDS011;70698;44.402;18.522;2023-08-06T04:06:09;16.13;;;9.35;;
81223;SDS011;70698;44.402;18.522;2023-08-06T04:08:35;11.20;;;8.55;;
81223;SDS011;70698;44.402;18.522;2023-08-06T04:11:01;14.02;;;9.45;;
81223;SDS011;70698;44.402;18.522;2023-08-06T04:13:27;11.45;;;8.77;;
81223;SDS011;70698;44.402;18.522;2023-08-06T04:15:53;13.27;;;9.07;;
81223;SDS011;70698;44.402;18.522;2023-08-06T04:18:20;14.32;;;9.02;;
81223;SDS011;70698;44.402;18.522;2023-08-06T04:20:47;14.35;;;9.07;;
81223;SDS011;70698;44.402;18.522;2023-08-06T04:23:14;13.03;;;9.43;;
81223;SDS011;70698;44.402;18.522;2023-08-06T04:25:41;13.95;;;9.70;;
81223;SDS011;70698;44.402;18.522;2023-08-06T04:28:07;12.32;;;9.75;;
81223;SDS011;70698;44.402;18.522;2023-08-06T04:30:33;14.98;;;10.68;;
81223;SDS011;70698;44.402;18.522;2023-08-06T04:33:00;15.88;;;11.15;;
81223;SDS011;70698;44.402;18.522;2023-08-06T04:35:26;15.18;;;10.77;;
81223;SDS011;70698;44.402;18.522;2023-08-06T04:37:52;15.13;;;11.13;;
81223;SDS011;70698;44.402;18.522;2023-08-06T04:40:17;13.75;;;10.57;;
81223;SDS011;70698;44.402;18.522;2023-08-06T04:42:43;13.90;;;10.65;;
81223;SDS011;70698;44.402;18.522;2023-08-06T04:45:09;15.38;;;11.10;;
81223;SDS011;70698;44.402;18.522;2023-08-06T04:47:35;14.52;;;10.60;;
81223;SDS011;70698;44.402;18.522;2023-08-06T04:50:00;15.07;;;10.95;;
81223;SDS011;70698;44.402;18.522;2023-08-06T04:52:26;20.05;;;11.15;;
81223;SDS011;70698;44.402;18.522;2023-08-06T04:54:53;14.32;;;10.00;;
81223;SDS011;70698;44.402;18.522;2023-08-06T04:57:19;14.52;;;10.52;;
81223;SDS011;70698;44.402;18.522;2023-08-06T04:59:45;14.63;;;10.70;;
81223;SDS011;70698;44.402;18.522;2023-08-06T05:02:11;14.57;;;10.43;;
81223;SDS011;70698;44.402;18.522;2023-08-06T05:04:37;15.55;;;10.40;;
81223;SDS011;70698;44.402;18.522;2023-08-06T05:07:02;14.48;;;10.35;;
81223;SDS011;70698;44.402;18.522;2023-08-06T05:09:28;20.55;;;11.07;;
81223;SDS011;70698;44.402;18.522;2023-08-06T05:11:54;15.07;;;10.18;;
81223;SDS011;70698;44.402;18.522;2023-08-06T05:14:20;15.43;;;10.45;;
81223;SDS011;70698;44.402;18.522;2023-08-06T05:16:45;14.30;;;10.73;;
81223;SDS011;70698;44.402;18.522;2023-08-06T05:19:11;16.75;;;10.13;;
81223;SDS011;70698;44.402;18.522;2023-08-06T05:21:36;16.48;;;10.98;;
81223;SDS011;70698;44.402;18.522;2023-08-06T05:24:02;13.20;;;10.05;;
81223;SDS011;70698;44.402;18.522;2023-08-06T05:26:28;12.90;;;10.13;;
81223;SDS011;70698;44.402;18.522;2023-08-06T05:28:53;11.00;;;9.40;;
81223;SDS011;70698;44.402;18.522;2023-08-06T05:31:19;12.93;;;10.65;;
81223;SDS011;70698;44.402;18.522;2023-08-06T05:33:44;13.25;;;10.00;;
81223;SDS011;70698;44.402;18.522;2023-08-06T05:36:10;10.73;;;8.35;;
81223;SDS011;70698;44.402;18.522;2023-08-06T05:38:36;15.05;;;8.90;;
81223;SDS011;70698;44.402;18.522;2023-08-06T05:41:01;9.65;;;6.80;;
81223;SDS011;70698;44.402;18.522;2023-08-06T05:43:27;12.57;;;6.05;;
81223;SDS011;70698;44.402;18.522;2023-08-06T05:45:52;7.03;;;5.35;;
81223;SDS011;70698;44.402;18.522;2023-08-06T05:48:18;5.78;;;4.78;;
81223;SDS011;70698;44.402;18.522;2023-08-06T05:50:43;6.57;;;5.75;;
81223;SDS011;70698;44.402;18.522;2023-08-06T05:53:09;6.25;;;5.65;;
81223;SDS011;70698;44.402;18.522;2023-08-06T05:55:34;8.27;;;6.15;;
81223;SDS011;70698;44.402;18.522;2023-08-06T05:58:00;6.78;;;5.38;;
81223;SDS011;70698;44.402;18.522;2023-08-06T06:00:26;6.30;;;4.80;;
81223;SDS011;70698;44.402;18.522;2023-08-06T06:02:52;6.05;;;5.05;;
81223;SDS011;70698;44.402;18.522;2023-08-06T06:05:17;6.13;;;5.30;;
81223;SDS011;70698;44.402;18.522;2023-08-06T06:07:43;5.95;;;4.68;;
81223;SDS011;70698;44.402;18.522;2023-08-06T06:10:08;8.23;;;4.72;;
81223;SDS011;70698;44.402;18.522;2023-08-06T06:12:34;7.00;;;4.80;;
81223;SDS011;70698;44.402;18.522;2023-08-06T06:15:00;6.35;;;4.35;;
81223;SDS011;70698;44.402;18.522;2023-08-06T06:17:26;6.03;;;4.47;;
81223;SDS011;70698;44.402;18.522;2023-08-06T06:19:52;5.63;;;4.40;;
81223;SDS011;70698;44.402;18.522;2023-08-06T06:22:18;5.53;;;4.80;;
81223;SDS011;70698;44.402;18.522;2023-08-06T06:24:44;5.32;;;4.30;;
81223;SDS011;70698;44.402;18.522;2023-08-06T06:27:09;5.22;;;4.03;;
81223;SDS011;70698;44.402;18.522;2023-08-06T06:29:35;4.63;;;4.22;;
81223;SDS011;70698;44.402;18.522;2023-08-06T06:32:00;7.45;;;4.40;;
81223;SDS011;70698;44.402;18.522;2023-08-06T06:34:26;6.85;;;4.30;;
81223;SDS011;70698;44.402;18.522;2023-08-06T06:36:51;6.65;;;4.53;;
81223;SDS011;70698;44.402;18.522;2023-08-06T06:39:17;5.30;;;4.30;;
81223;SDS011;70698;44.402;18.522;2023-08-06T06:41:43;5.22;;;4.55;;
81223;SDS011;70698;44.402;18.522;2023-08-06T06:44:17;5.53;;;4.40;;
81223;SDS011;70698;44.402;18.522;2023-08-06T06:46:45;6.32;;;4.28;;
81223;SDS011;70698;44.402;18.522;2023-08-06T06:49:11;4.95;;;4.45;;
81223;SDS011;70698;44.402;18.522;2023-08-06T06:51:36;8.52;;;5.35;;
81223;SDS011;70698;44.402;18.522;2023-08-06T06:54:02;6.90;;;5.03;;
81223;SDS011;70698;44.402;18.522;2023-08-06T06:56:27;10.40;;;7.90;;
81223;SDS011;70698;44.402;18.522;2023-08-06T06:58:53;7.25;;;5.65;;
81223;SDS011;70698;44.402;18.522;2023-08-06T07:01:18;9.35;;;7.40;;
81223;SDS011;70698;44.402;18.522;2023-08-06T07:03:44;19.67;;;14.57;;
81223;SDS011;70698;44.402;18.522;2023-08-06T07:06:09;8.55;;;7.47;;
81223;SDS011;70698;44.402;18.522;2023-08-06T07:08:36;7.20;;;5.50;;
81223;SDS011;70698;44.402;18.522;2023-08-06T07:11:02;9.05;;;6.97;;
81223;SDS011;70698;44.402;18.522;2023-08-06T07:13:28;6.10;;;5.55;;
81223;SDS011;70698;44.402;18.522;2023-08-06T07:15:54;6.47;;;5.70;;
81223;SDS011;70698;44.402;18.522;2023-08-06T07:18:20;5.60;;;4.13;;
81223;SDS011;70698;44.402;18.522;2023-08-06T07:20:49;3.30;;;3.00;;
81223;SDS011;70698;44.402;18.522;2023-08-06T07:23:16;5.35;;;3.50;;
81223;SDS011;70698;44.402;18.522;2023-08-06T07:25:42;4.75;;;3.40;;
81223;SDS011;70698;44.402;18.522;2023-08-06T07:28:08;4.50;;;3.40;;
81223;SDS011;70698;44.402;18.522;2023-08-06T07:30:38;4.43;;;3.13;;
81223;SDS011;70698;44.402;18.522;2023-08-06T07:33:04;4.80;;;4.40;;
81223;SDS011;70698;44.402;18.522;2023-08-06T07:35:29;6.95;;;5.93;;
81223;SDS011;70698;44.402;18.522;2023-08-06T07:37:55;5.82;;;3.90;;
81223;SDS011;70698;44.402;18.522;2023-08-06T07:40:21;5.93;;;3.83;;
81223;SDS011;70698;44.402;18.522;2023-08-06T07:42:46;7.68;;;3.58;;
81223;SDS011;70698;44.402;18.522;2023-08-06T07:45:12;3.80;;;3.50;;
81223;SDS011;70698;44.402;18.522;2023-08-06T07:47:37;4.35;;;3.80;;
81223;SDS011;70698;44.402;18.522;2023-08-06T07:50:03;4.57;;;4.00;;
81223;SDS011;70698;44.402;18.522;2023-08-06T07:52:29;5.82;;;3.90;;
81223;SDS011;70698;44.402;18.522;2023-08-06T07:54:54;4.10;;;3.70;;
81223;SDS011;70698;44.402;18.522;2023-08-06T07:57:20;5.55;;;3.47;;
81223;SDS011;70698;44.402;18.522;2023-08-06T07:59:45;4.60;;;3.47;;
81223;SDS011;70698;44.402;18.522;2023-08-06T08:02:11;5.35;;;3.30;;
81223;SDS011;70698;44.402;18.522;2023-08-06T08:04:37;6.30;;;4.20;;
81223;SDS011;70698;44.402;18.522;2023-08-06T08:07:02;4.90;;;3.80;;
81223;SDS011;70698;44.402;18.522;2023-08-06T08:09:28;4.22;;;3.60;;
81223;SDS011;70698;44.402;18.522;2023-08-06T08:11:53;8.27;;;6.32;;
81223;SDS011;70698;44.402;18.522;2023-08-06T08:14:19;10.27;;;8.65;;
81223;SDS011;70698;44.402;18.522;2023-08-06T08:16:45;7.50;;;6.35;;
81223;SDS011;70698;44.402;18.522;2023-08-06T08:19:10;5.82;;;5.15;;
81223;SDS011;70698;44.402;18.522;2023-08-06T08:21:36;5.95;;;5.38;;
81223;SDS011;70698;44.402;18.522;2023-08-06T08:24:03;6.80;;;6.00;;
81223;SDS011;70698;44.402;18.522;2023-08-06T08:26:30;8.43;;;5.97;;
81223;SDS011;70698;44.402;18.522;2023-08-06T08:28:56;4.82;;;4.43;;
81223;SDS011;70698;44.402;18.522;2023-08-06T08:31:22;4.95;;;4.55;;
81223;SDS011;70698;44.402;18.522;2023-08-06T08:33:47;8.50;;;6.43;;
81223;SDS011;70698;44.402;18.522;2023-08-06T08:36:13;9.20;;;6.70;;
81223;SDS011;70698;44.402;18.522;2023-08-06T08:38:39;7.72;;;5.25;;
81223;SDS011;70698;44.402;18.522;2023-08-06T08:41:04;4.10;;;3.70;;
81223;SDS011;70698;44.402;18.522;2023-08-06T08:43:31;4.22;;;3.53;;
81223;SDS011;70698;44.402;18.522;2023-08-06T08:45:57;4.70;;;3.50;;
81223;SDS011;70698;44.402;18.522;2023-08-06T08:48:27;4.97;;;3.65;;
81223;SDS011;70698;44.402;18.522;2023-08-06T08:50:53;3.63;;;3.30;;
81223;SDS011;70698;44.402;18.522;2023-08-06T08:53:18;3.50;;;3.20;;
81223;SDS011;70698;44.402;18.522;2023-08-06T08:55:47;5.70;;;3.40;;
81223;SDS011;70698;44.402;18.522;2023-08-06T08:58:14;3.35;;;3.05;;
81223;SDS011;70698;44.402;18.522;2023-08-06T09:00:43;4.22;;;2.90;;
81223;SDS011;70698;44.402;18.522;2023-08-06T09:03:11;3.88;;;2.42;;
81223;SDS011;70698;44.402;18.522;2023-08-06T09:05:36;4.35;;;3.10;;
81223;SDS011;70698;44.402;18.522;2023-08-06T09:08:08;3.00;;;2.70;;
81223;SDS011;70698;44.402;18.522;2023-08-06T09:10:38;3.35;;;2.92;;
81223;SDS011;70698;44.402;18.522;2023-08-06T09:15:31;6.47;;;2.88;;
81223;SDS011;70698;44.402;18.522;2023-08-06T09:17:57;4.18;;;2.90;;
81223;SDS011;70698;44.402;18.522;2023-08-06T09:20:23;3.72;;;2.95;;
81223;SDS011;70698;44.402;18.522;2023-08-06T09:22:48;3.88;;;2.97;;
81223;SDS011;70698;44.402;18.522;2023-08-06T09:25:20;5.63;;;3.72;;
81223;SDS011;70698;44.402;18.522;2023-08-06T09:27:48;6.82;;;5.30;;
81223;SDS011;70698;44.402;18.522;2023-08-06T09:30:27;9.60;;;7.40;;
81223;SDS011;70698;44.402;18.522;2023-08-06T09:32:57;10.38;;;7.72;;
81223;SDS011;70698;44.402;18.522;2023-08-06T09:35:23;4.22;;;3.58;;
81223;SDS011;70698;44.402;18.522;2023-08-06T09:37:49;19.08;;;16.10;;
81223;SDS011;70698;44.402;18.522;2023-08-06T09:40:27;3.70;;;2.97;;
81223;SDS011;70698;44.402;18.522;2023-08-06T09:42:54;3.60;;;3.30;;
81223;SDS011;70698;44.402;18.522;2023-08-06T09:45:20;5.95;;;3.70;;
81223;SDS011;70698;44.402;18.522;2023-08-06T09:47:56;3.47;;;3.10;;
81223;SDS011;70698;44.402;18.522;2023-08-06T09:50:21;5.45;;;4.18;;
81223;SDS011;70698;44.402;18.522;2023-08-06T09:52:48;7.15;;;5.93;;
81223;SDS011;70698;44.402;18.522;2023-08-06T09:55:15;4.45;;;3.80;;
81223;SDS011;70698;44.402;18.522;2023-08-06T09:57:41;4.50;;;3.10;;
81223;SDS011;70698;44.402;18.522;2023-08-06T10:00:09;3.08;;;2.78;;
81223;SDS011;70698;44.402;18.522;2023-08-06T10:02:38;4.10;;;3.65;;
81223;SDS011;70698;44.402;18.522;2023-08-06T10:05:05;5.05;;;2.20;;
81223;SDS011;70698;44.402;18.522;2023-08-06T10:07:32;2.70;;;2.47;;
81223;SDS011;70698;44.402;18.522;2023-08-06T10:09:58;3.42;;;2.40;;
81223;SDS011;70698;44.402;18.522;2023-08-06T10:12:24;4.50;;;2.43;;
81223;SDS011;70698;44.402;18.522;2023-08-06T10:17:22;2.42;;;2.22;;
81223;SDS011;70698;44.402;18.522;2023-08-06T10:19:49;8.30;;;2.50;;
81223;SDS011;70698;44.402;18.522;2023-08-06T10:22:17;6.65;;;5.95;;
81223;SDS011;70698;44.402;18.522;2023-08-06T10:27:28;2.20;;;2.00;;
81223;SDS011;70698;44.402;18.522;2023-08-06T10:29:55;4.28;;;2.30;;
81223;SDS011;70698;44.402;18.522;2023-08-06T10:32:21;3.50;;;2.42;;
81223;SDS011;70698;44.402;18.522;2023-08-06T10:34:53;3.88;;;2.22;;
81223;SDS011;70698;44.402;18.522;2023-08-06T10:37:34;2.10;;;1.88;;
81223;SDS011;70698;44.402;18.522;2023-08-06T10:40:01;1.90;;;1.70;;
81223;SDS011;70698;44.402;18.522;2023-08-06T10:42:28;2.60;;;1.80;;
81223;SDS011;70698;44.402;18.522;2023-08-06T10:47:46;3.47;;;1.90;;
81223;SDS011;70698;44.402;18.522;2023-08-06T10:50:15;4.30;;;1.98;;
81223;SDS011;70698;44.402;18.522;2023-08-06T10:52:42;1.95;;;1.75;;
81223;SDS011;70698;44.402;18.522;2023-08-06T10:55:08;1.73;;;1.55;;
81223;SDS011;70698;44.402;18.522;2023-08-06T10:57:34;2.45;;;1.48;;
81223;SDS011;70698;44.402;18.522;2023-08-06T11:00:00;3.13;;;2.17;;
81223;SDS011;70698;44.402;18.522;2023-08-06T11:02:26;13.82;;;10.55;;
81223;SDS011;70698;44.402;18.522;2023-08-06T11:04:52;31.73;;;22.30;;
81223;SDS011;70698;44.402;18.522;2023-08-06T11:07:17;3.65;;;2.50;;
81223;SDS011;70698;44.402;18.522;2023-08-06T11:09:43;2.80;;;2.35;;
81223;SDS011;70698;44.402;18.522;2023-08-06T11:12:09;4.18;;;2.97;;
81223;SDS011;70698;44.402;18.522;2023-08-06T11:14:35;4.97;;;2.92;;
81223;SDS011;70698;44.402;18.522;2023-08-06T11:17:01;4.93;;;2.70;;
81223;SDS011;70698;44.402;18.522;2023-08-06T11:19:27;3.45;;;2.25;;
81223;SDS011;70698;44.402;18.522;2023-08-06T11:21:54;7.28;;;2.40;;
81223;SDS011;70698;44.402;18.522;2023-08-06T11:24:19;5.03;;;2.97;;
81223;SDS011;70698;44.402;18.522;2023-08-06T11:26:45;9.15;;;3.60;;
81223;SDS011;70698;44.402;18.522;2023-08-06T11:29:11;15.43;;;4.03;;
81223;SDS011;70698;44.402;18.522;2023-08-06T11:31:36;9.07;;;3.13;;
81223;SDS011;70698;44.402;18.522;2023-08-06T11:34:02;6.60;;;3.10;;
81223;SDS011;70698;44.402;18.522;2023-08-06T11:36:36;4.95;;;2.92;;
81223;SDS011;70698;44.402;18.522;2023-08-06T11:39:05;3.53;;;3.22;;
81223;SDS011;70698;44.402;18.522;2023-08-06T11:41:31;4.30;;;2.90;;
81223;SDS011;70698;44.402;18.522;2023-08-06T11:44:00;5.35;;;2.90;;
81223;SDS011;70698;44.402;18.522;2023-08-06T11:46:26;4.10;;;3.05;;
81223;SDS011;70698;44.402;18.522;2023-08-06T11:48:52;4.07;;;2.92;;
81223;SDS011;70698;44.402;18.522;2023-08-06T11:51:24;5.40;;;3.67;;
81223;SDS011;70698;44.402;18.522;2023-08-06T11:53:55;6.20;;;2.88;;
81223;SDS011;70698;44.402;18.522;2023-08-06T11:56:21;6.03;;;3.07;;
81223;SDS011;70698;44.402;18.522;2023-08-06T11:58:47;3.53;;;2.55;;
81223;SDS011;70698;44.402;18.522;2023-08-06T12:01:13;4.57;;;3.13;;
81223;SDS011;70698;44.402;18.522;2023-08-06T12:03:39;3.97;;;3.30;;
81223;SDS011;70698;44.402;18.522;2023-08-06T12:06:05;7.03;;;4.55;;
81223;SDS011;70698;44.402;18.522;2023-08-06T12:08:32;4.78;;;3.17;;
81223;SDS011;70698;44.402;18.522;2023-08-06T12:10:58;3.92;;;2.63;;
81223;SDS011;70698;44.402;18.522;2023-08-06T12:13:24;4.45;;;2.70;;
81223;SDS011;70698;44.402;18.522;2023-08-06T12:15:49;6.97;;;3.22;;
81223;SDS011;70698;44.402;18.522;2023-08-06T12:18:18;7.13;;;3.05;;
81223;SDS011;70698;44.402;18.522;2023-08-06T12:20:43;1.90;;;1.58;;
81223;SDS011;70698;44.402;18.522;2023-08-06T12:23:09;1.90;;;1.60;;
81223;SDS011;70698;44.402;18.522;2023-08-06T12:25:35;2.33;;;1.40;;
81223;SDS011;70698;44.402;18.522;2023-08-06T12:28:00;2.42;;;1.88;;
81223;SDS011;70698;44.402;18.522;2023-08-06T12:30:26;3.10;;;1.70;;
81223;SDS011;70698;44.402;18.522;2023-08-06T12:32:51;4.13;;;1.52;;
81223;SDS011;70698;44.402;18.522;2023-08-06T12:35:17;2.70;;;1.20;;
81223;SDS011;70698;44.402;18.522;2023-08-06T12:37:43;1.30;;;1.10;;
81223;SDS011;70698;44.402;18.522;2023-08-06T12:40:09;1.35;;;1.15;;
81223;SDS011;70698;44.402;18.522;2023-08-06T12:42:35;1.48;;;0.90;;
81223;SDS011;70698;44.402;18.522;2023-08-06T12:45:01;2.53;;;1.60;;
81223;SDS011;70698;44.402;18.522;2023-08-06T12:47:26;7.70;;;1.23;;
81223;SDS011;70698;44.402;18.522;2023-08-06T12:49:52;3.35;;;1.70;;
81223;SDS011;70698;44.402;18.522;2023-08-06T12:52:17;3.63;;;2.13;;
81223;SDS011;70698;44.402;18.522;2023-08-06T12:54:45;10.25;;;1.60;;
81223;SDS011;70698;44.402;18.522;2023-08-06T12:57:11;3.03;;;1.50;;
81223;SDS011;70698;44.402;18.522;2023-08-06T12:59:37;2.67;;;1.80;;
81223;SDS011;70698;44.402;18.522;2023-08-06T13:02:02;1.60;;;1.40;;
81223;SDS011;70698;44.402;18.522;2023-08-06T13:04:28;2.45;;;1.98;;
81223;SDS011;70698;44.402;18.522;2023-08-06T13:06:54;2.10;;;1.80;;
81223;SDS011;70698;44.402;18.522;2023-08-06T13:09:19;1.85;;;1.67;;
81223;SDS011;70698;44.402;18.522;2023-08-06T13:11:45;5.63;;;1.90;;
81223;SDS011;70698;44.402;18.522;2023-08-06T13:14:12;1.73;;;1.60;;
81223;SDS011;70698;44.402;18.522;2023-08-06T13:16:40;1.65;;;1.55;;
81223;SDS011;70698;44.402;18.522;2023-08-06T13:19:07;1.40;;;1.30;;
81223;SDS011;70698;44.402;18.522;2023-08-06T13:21:34;1.73;;;1.40;;
81223;SDS011;70698;44.402;18.522;2023-08-06T13:24:20;1.30;;;1.20;;
81223;SDS011;70698;44.402;18.522;2023-08-06T13:26:46;2.40;;;1.40;;
81223;SDS011;70698;44.402;18.522;2023-08-06T13:29:12;1.55;;;0.90;;
81223;SDS011;70698;44.402;18.522;2023-08-06T13:31:37;2.22;;;1.90;;
81223;SDS011;70698;44.402;18.522;2023-08-06T13:34:03;1.77;;;1.30;;
81223;SDS011;70698;44.402;18.522;2023-08-06T13:36:29;1.92;;;0.70;;
81223;SDS011;70698;44.402;18.522;2023-08-06T13:38:55;1.95;;;0.63;;
81223;SDS011;70698;44.402;18.522;2023-08-06T13:41:21;1.55;;;1.13;;
81223;SDS011;70698;44.402;18.522;2023-08-06T13:43:47;0.60;;;0.60;;
81223;SDS011;70698;44.402;18.522;2023-08-06T13:46:13;2.03;;;1.33;;
81223;SDS011;70698;44.402;18.522;2023-08-06T13:48:42;0.80;;;0.70;;
81223;SDS011;70698;44.402;18.522;2023-08-06T13:51:11;1.40;;;0.80;;
81223;SDS011;70698;44.402;18.522;2023-08-06T13:53:40;1.00;;;0.73;;
81223;SDS011;70698;44.402;18.522;2023-08-06T13:56:06;1.83;;;0.77;;
81223;SDS011;70698;44.402;18.522;2023-08-06T13:58:35;1.35;;;0.70;;
81223;SDS011;70698;44.402;18.522;2023-08-06T14:01:00;0.90;;;0.60;;
81223;SDS011;70698;44.402;18.522;2023-08-06T14:03:26;0.75;;;0.60;;
81223;SDS011;70698;44.402;18.522;2023-08-06T14:05:51;1.10;;;0.80;;
81223;SDS011;70698;44.402;18.522;2023-08-06T14:08:18;0.85;;;0.80;;
81223;SDS011;70698;44.402;18.522;2023-08-06T14:10:44;1.45;;;0.90;;
81223;SDS011;70698;44.402;18.522;2023-08-06T14:13:10;2.13;;;0.80;;
81223;SDS011;70698;44.402;18.522;2023-08-06T14:15:35;1.20;;;0.88;;
81223;SDS011;70698;44.402;18.522;2023-08-06T14:18:02;1.00;;;0.90;;
81223;SDS011;70698;44.402;18.522;2023-08-06T14:20:28;1.10;;;0.90;;
81223;SDS011;70698;44.402;18.522;2023-08-06T14:22:53;1.40;;;0.90;;
81223;SDS011;70698;44.402;18.522;2023-08-06T14:25:19;1.75;;;1.50;;
81223;SDS011;70698;44.402;18.522;2023-08-06T14:27:45;2.35;;;2.15;;
81223;SDS011;70698;44.402;18.522;2023-08-06T14:30:11;2.58;;;2.38;;
81223;SDS011;70698;44.402;18.522;2023-08-06T14:32:36;3.10;;;2.30;;
81223;SDS011;70698;44.402;18.522;2023-08-06T14:35:02;2.60;;;2.40;;
81223;SDS011;70698;44.402;18.522;2023-08-06T14:37:28;3.22;;;2.30;;
81223;SDS011;70698;44.402;18.522;2023-08-06T14:39:53;2.80;;;2.60;;
81223;SDS011;70698;44.402;18.522;2023-08-06T14:42:19;3.85;;;2.60;;
81223;SDS011;70698;44.402;18.522;2023-08-06T14:44:45;3.17;;;2.92;;
81223;SDS011;70698;44.402;18.522;2023-08-06T14:47:10;3.65;;;3.35;;